createdAt,value
2023-04-19T00:00:50.784Z,13.57
2023-04-19T00:03:18.856Z,12.27
2023-04-19T00:05:46.993Z,13.30
2023-04-19T00:08:14.606Z,13.70
2023-04-19T00:10:42.245Z,13.52
2023-04-19T00:13:10.828Z,13.13
2023-04-19T00:15:39.132Z,12.38
2023-04-19T00:18:08.395Z,12.80
2023-04-19T00:20:36.365Z,13.68
2023-04-19T00:23:03.952Z,13.95
2023-04-19T00:25:32.027Z,14.43
2023-04-19T00:27:59.648Z,13.05
2023-04-19T00:30:27.271Z,13.10
2023-04-19T00:32:55.044Z,14.23
2023-04-19T00:35:24.084Z,14.48
2023-04-19T00:37:51.705Z,13.30
2023-04-19T00:40:19.411Z,14.73
2023-04-19T00:42:47.354Z,14.38
2023-04-19T00:45:15.266Z,14.40
2023-04-19T00:47:43.612Z,14.25
2023-04-19T00:50:12.089Z,14.52
2023-04-19T00:52:41.460Z,13.85
2023-04-19T00:55:09.580Z,15.52
2023-04-19T00:57:38.241Z,12.15
2023-04-19T01:00:08.893Z,14.65
2023-04-19T01:02:36.910Z,15.05
2023-04-19T01:05:04.887Z,14.68
2023-04-19T01:07:34.317Z,14.52
2023-04-19T01:10:06.529Z,14.43
2023-04-19T01:12:34.153Z,14.43
2023-04-19T01:15:01.781Z,17.15
2023-04-19T01:17:30.296Z,14.05
2023-04-19T01:20:00.284Z,13.07
2023-04-19T01:22:30.133Z,15.20
2023-04-19T01:24:58.667Z,15.25
2023-04-19T01:27:26.470Z,15.07
2023-04-19T01:29:54.239Z,15.75
2023-04-19T01:32:21.883Z,15.32
2023-04-19T01:34:49.976Z,17.13
2023-04-19T01:37:17.707Z,16.30
2023-04-19T01:39:46.697Z,13.63
2023-04-19T01:42:14.395Z,16.05
2023-04-19T01:44:42.075Z,14.88
2023-04-19T01:47:10.487Z,15.15
2023-04-19T01:49:38.333Z,15.60
2023-04-19T01:52:06.041Z,14.35
2023-04-19T01:54:33.664Z,15.98
2023-04-19T01:57:02.765Z,15.00
2023-04-19T01:59:30.487Z,14.50
2023-04-19T02:01:59.082Z,16.45
2023-04-19T02:04:27.285Z,15.07
2023-04-19T02:06:54.986Z,15.95
2023-04-19T02:09:22.723Z,15.90
2023-04-19T02:11:51.285Z,14.63
2023-04-19T02:14:20.242Z,16.35
2023-04-19T02:16:49.032Z,17.70
2023-04-19T02:19:16.714Z,16.38
2023-04-19T02:21:44.451Z,14.48
2023-04-19T02:24:12.152Z,14.88
2023-04-19T02:26:40.354Z,15.30
2023-04-19T02:29:08.031Z,15.93
2023-04-19T02:31:37.345Z,16.95
2023-04-19T02:34:05.019Z,16.95
2023-04-19T02:36:33.654Z,14.93
2023-04-19T02:39:01.299Z,16.00
2023-04-19T02:41:28.889Z,15.23
2023-04-19T02:43:56.690Z,16.23
2023-04-19T02:46:24.656Z,14.50
2023-04-19T02:48:53.684Z,15.52
2023-04-19T02:51:21.402Z,14.05
2023-04-19T02:53:49.655Z,15.40
2023-04-19T02:56:17.264Z,15.98
2023-04-19T02:58:44.929Z,15.63
2023-04-19T03:01:12.668Z,16.05
2023-04-19T03:03:40.444Z,15.05
2023-04-19T03:06:10.106Z,14.65
2023-04-19T03:08:37.729Z,15.93
2023-04-19T03:11:05.404Z,14.98
2023-04-19T03:13:33.044Z,13.98
2023-04-19T03:16:00.774Z,13.75
2023-04-19T03:18:28.497Z,15.52
2023-04-19T03:20:56.183Z,14.30
2023-04-19T03:23:26.878Z,14.55
2023-04-19T03:25:54.622Z,15.57
2023-04-19T03:28:22.331Z,15.32
2023-04-19T03:30:49.938Z,15.70
2023-04-19T03:33:17.566Z,14.20
2023-04-19T03:35:45.542Z,13.90
2023-04-19T03:38:13.904Z,16.83
2023-04-19T03:40:43.409Z,14.30
2023-04-19T03:43:11.117Z,15.93
2023-04-19T03:45:38.800Z,15.15
2023-04-19T03:48:06.722Z,16.45
2023-04-19T03:50:36.503Z,16.60
2023-04-19T03:53:04.841Z,16.98
2023-04-19T03:55:32.512Z,15.85
2023-04-19T03:58:01.844Z,16.35
2023-04-19T04:00:29.592Z,16.60
2023-04-19T04:02:57.596Z,16.05
2023-04-19T04:05:28.436Z,16.48
2023-04-19T04:07:56.540Z,16.67
2023-04-19T04:10:24.216Z,16.20
2023-04-19T04:12:51.862Z,14.27
2023-04-19T04:15:20.936Z,16.60
2023-04-19T04:17:48.618Z,16.85
2023-04-19T04:20:17.015Z,15.60
2023-04-19T04:22:46.417Z,16.95
2023-04-19T04:25:15.833Z,15.80
2023-04-19T04:27:44.097Z,15.32
2023-04-19T04:30:12.280Z,17.50
2023-04-19T04:32:41.390Z,15.55
2023-04-19T04:35:10.865Z,14.93
2023-04-19T04:37:38.479Z,16.20
2023-04-19T04:40:07.128Z,15.95
2023-04-19T04:42:35.706Z,17.38
2023-04-19T04:45:03.794Z,16.17
2023-04-19T04:47:34.846Z,15.80
2023-04-19T04:50:04.198Z,14.63
2023-04-19T04:52:31.825Z,14.77
2023-04-19T04:54:59.446Z,18.30
2023-04-19T04:57:27.186Z,17.13
2023-04-19T04:59:56.383Z,15.55
2023-04-19T05:02:24.281Z,16.10
2023-04-19T05:04:52.037Z,17.67
2023-04-19T05:07:21.045Z,15.85
2023-04-19T05:09:48.774Z,16.95
2023-04-19T05:12:16.466Z,18.33
2023-04-19T05:14:44.105Z,15.63
2023-04-19T05:17:11.788Z,14.68
2023-04-19T05:19:39.513Z,16.52
2023-04-19T05:22:07.350Z,15.38
2023-04-19T05:24:36.429Z,15.38
2023-04-19T05:27:04.063Z,17.17
2023-04-19T05:29:32.498Z,14.50
2023-04-19T05:32:00.942Z,15.80
2023-04-19T05:34:29.038Z,15.40
2023-04-19T05:36:56.944Z,16.27
2023-04-19T05:39:24.711Z,14.95
2023-04-19T05:41:54.525Z,14.15
2023-04-19T05:44:22.192Z,14.85
2023-04-19T05:46:49.889Z,15.23
2023-04-19T05:49:17.498Z,14.73
2023-04-19T05:51:45.169Z,13.88
2023-04-19T05:54:14.724Z,14.10
2023-04-19T05:56:42.699Z,13.95
2023-04-19T05:59:11.797Z,14.00
2023-04-19T06:01:39.970Z,13.60
2023-04-19T06:04:08.459Z,13.82
2023-04-19T06:06:38.191Z,13.65
2023-04-19T06:09:07.163Z,14.70
2023-04-19T06:11:42.899Z,12.98
2023-04-19T06:14:19.327Z,14.30
2023-04-19T06:16:47.541Z,14.55
2023-04-19T06:19:15.314Z,13.27
2023-04-19T06:21:43.125Z,12.93
2023-04-19T06:24:10.955Z,12.70
2023-04-19T06:26:38.596Z,14.02
2023-04-19T06:29:06.342Z,13.15
2023-04-19T06:31:35.413Z,12.55
2023-04-19T06:34:03.729Z,11.88
2023-04-19T06:36:31.426Z,13.18
2023-04-19T06:38:59.070Z,12.02
2023-04-19T06:41:26.834Z,12.77
2023-04-19T06:43:54.568Z,12.25
2023-04-19T06:46:22.408Z,11.75
2023-04-19T06:48:51.417Z,12.63
2023-04-19T06:51:19.000Z,11.13
2023-04-19T06:53:46.762Z,13.00
2023-04-19T06:56:14.987Z,12.90
2023-04-19T06:58:42.607Z,10.45
2023-04-19T07:01:10.863Z,11.02
2023-04-19T07:03:38.600Z,11.02
2023-04-19T07:06:08.016Z,12.55
2023-04-19T07:08:48.689Z,11.35
2023-04-19T07:11:19.290Z,11.90
2023-04-19T07:13:48.450Z,11.80
2023-04-19T07:16:16.208Z,11.93
2023-04-19T07:18:44.431Z,10.98
2023-04-19T07:21:13.448Z,10.93
2023-04-19T07:23:41.504Z,12.13
2023-04-19T07:26:09.277Z,9.20
2023-04-19T07:28:36.915Z,10.75
2023-04-19T07:31:04.612Z,11.27
2023-04-19T07:33:35.418Z,10.40
2023-04-19T07:36:03.065Z,10.40
2023-04-19T07:38:32.157Z,10.90
2023-04-19T07:41:00.748Z,9.82
2023-04-19T07:43:28.425Z,9.98
2023-04-19T07:45:56.158Z,9.43
2023-04-19T07:48:23.894Z,9.85
2023-04-19T07:50:52.126Z,9.68
2023-04-19T07:53:19.975Z,9.95
2023-04-19T07:55:48.972Z,10.00
2023-04-19T07:58:16.673Z,9.02
2023-04-19T08:00:44.343Z,11.23
2023-04-19T08:03:12.604Z,9.38
2023-04-19T08:05:40.699Z,9.60
2023-04-19T08:08:08.413Z,9.55
2023-04-19T08:10:36.152Z,10.68
2023-04-19T08:13:06.597Z,8.57
2023-04-19T08:18:10.252Z,9.45
2023-04-19T08:20:38.097Z,9.40
2023-04-19T08:23:20.444Z,8.82
2023-04-19T08:25:50.941Z,9.30
2023-04-19T08:28:20.168Z,8.43
2023-04-19T08:30:47.880Z,7.18
2023-04-19T08:33:15.688Z,8.70
2023-04-19T08:35:45.420Z,8.80
2023-04-19T08:38:13.449Z,7.60
2023-04-19T08:40:42.775Z,7.78
2023-04-19T08:43:11.176Z,7.53
2023-04-19T08:45:40.384Z,8.80
2023-04-19T08:48:10.437Z,8.70
2023-04-19T08:50:48.772Z,8.48
2023-04-19T08:53:29.525Z,8.98
2023-04-19T08:56:12.828Z,9.07
2023-04-19T08:59:04.096Z,8.45
2023-04-19T09:01:36.507Z,9.05
2023-04-19T09:04:16.872Z,9.40
2023-04-19T09:06:54.176Z,9.15
2023-04-19T09:11:53.766Z,8.82
2023-04-19T09:14:22.373Z,10.13
2023-04-19T09:16:52.537Z,8.63
2023-04-19T09:19:24.852Z,10.13
2023-04-19T09:21:54.881Z,9.20
2023-04-19T09:25:02.604Z,9.50
2023-04-19T09:27:31.317Z,9.38
2023-04-19T09:29:59.917Z,8.18
2023-04-19T09:32:29.637Z,9.30
2023-04-19T09:34:58.259Z,10.38
2023-04-19T09:39:57.210Z,8.70
2023-04-19T09:42:45.362Z,9.95
2023-04-19T09:45:29.160Z,7.70
2023-04-19T09:48:07.330Z,8.93
2023-04-19T09:50:50.505Z,8.00
2023-04-19T09:53:22.188Z,8.00
2023-04-19T09:56:00.195Z,8.93
2023-04-19T10:01:13.367Z,7.88
2023-04-19T10:03:45.889Z,7.05
2023-04-19T10:06:31.822Z,8.38
2023-04-19T10:09:04.218Z,8.00
2023-04-19T10:11:37.190Z,7.18
2023-04-19T10:14:05.910Z,8.13
2023-04-19T10:16:33.953Z,6.95
2023-04-19T10:19:04.499Z,5.68
2023-04-19T10:21:33.275Z,6.57
2023-04-19T10:24:01.995Z,5.70
2023-04-19T10:26:29.741Z,7.00
2023-04-19T10:28:58.155Z,6.60
2023-04-19T10:31:29.052Z,7.88
2023-04-19T10:33:57.898Z,6.82
2023-04-19T10:36:28.462Z,6.32
2023-04-19T10:38:56.212Z,6.70
2023-04-19T10:41:38.856Z,6.38
2023-04-19T10:44:10.566Z,7.07
2023-04-19T10:46:40.277Z,6.72
2023-04-19T10:49:09.787Z,6.97
2023-04-19T10:51:50.980Z,6.72
2023-04-19T10:54:31.828Z,7.13
2023-04-19T10:57:05.531Z,6.68
2023-04-19T10:59:34.870Z,7.13
2023-04-19T11:02:28.515Z,6.72
2023-04-19T11:05:05.511Z,6.97
2023-04-19T11:07:42.053Z,7.35
2023-04-19T11:10:38.106Z,6.70
2023-04-19T11:13:06.730Z,6.28
2023-04-19T11:15:34.492Z,7.40
2023-04-19T11:18:12.358Z,6.50
2023-04-19T11:20:43.735Z,7.32
2023-04-19T11:23:18.969Z,5.75
2023-04-19T11:25:49.387Z,5.53
2023-04-19T11:28:18.217Z,6.15
2023-04-19T11:30:46.311Z,6.32
2023-04-19T11:33:14.160Z,5.97
2023-04-19T11:35:42.270Z,6.65
2023-04-19T11:38:10.150Z,7.38
2023-04-19T11:40:39.233Z,6.00
2023-04-19T11:43:06.909Z,5.85
2023-04-19T11:45:39.473Z,5.95
2023-04-19T11:48:08.741Z,6.38
2023-04-19T11:50:38.162Z,6.30
2023-04-19T11:53:12.658Z,6.53
2023-04-19T11:55:43.243Z,5.78
2023-04-19T11:58:10.861Z,5.50
2023-04-19T12:00:38.806Z,6.55
2023-04-19T12:03:06.815Z,6.45
2023-04-19T12:05:35.174Z,6.60
2023-04-19T12:08:04.104Z,5.93
2023-04-19T12:10:31.945Z,5.97
2023-04-19T12:13:01.044Z,4.68
2023-04-19T12:15:43.745Z,5.93
2023-04-19T12:18:11.535Z,6.43
2023-04-19T12:20:40.046Z,5.43
2023-04-19T12:23:11.289Z,5.25
2023-04-19T12:25:38.919Z,5.68
2023-04-19T12:28:08.027Z,6.03
2023-04-19T12:30:36.701Z,5.40
2023-04-19T12:33:04.667Z,5.85
2023-04-19T12:35:32.422Z,5.22
2023-04-19T12:38:01.608Z,5.22
2023-04-19T12:40:29.313Z,5.25
2023-04-19T12:42:56.988Z,6.13
2023-04-19T12:45:26.405Z,4.80
2023-04-19T12:47:54.120Z,5.40
2023-04-19T12:50:21.874Z,5.50
2023-04-19T12:52:50.820Z,6.15
2023-04-19T12:55:18.431Z,5.57
2023-04-19T12:57:46.104Z,5.97
2023-04-19T13:00:14.115Z,5.60
2023-04-19T13:02:43.309Z,6.20
2023-04-19T13:05:12.923Z,5.28
2023-04-19T13:07:40.860Z,5.85
2023-04-19T13:10:09.181Z,6.28
2023-04-19T13:12:37.306Z,6.53
2023-04-19T13:15:05.459Z,6.00
2023-04-19T13:17:33.470Z,5.97
2023-04-19T13:20:02.522Z,6.38
2023-04-19T13:22:31.491Z,5.22
2023-04-19T13:24:59.938Z,5.22
2023-04-19T13:27:27.581Z,4.45
2023-04-19T13:29:55.894Z,5.45
2023-04-19T13:32:23.718Z,4.72
2023-04-19T13:34:51.441Z,4.80
2023-04-19T13:37:20.395Z,4.88
2023-04-19T13:39:48.168Z,4.60
2023-04-19T13:42:16.111Z,4.70
2023-04-19T13:44:43.862Z,4.30
2023-04-19T13:47:11.796Z,4.05
2023-04-19T13:49:39.648Z,3.60
2023-04-19T13:52:07.725Z,3.67
2023-04-19T13:54:36.724Z,3.60
2023-04-19T13:57:04.421Z,4.57
2023-04-19T13:59:32.068Z,3.97
2023-04-19T14:01:59.848Z,3.42
2023-04-19T14:04:28.390Z,3.85
2023-04-19T14:06:56.093Z,2.78
2023-04-19T14:09:23.800Z,3.67
2023-04-19T14:11:53.273Z,4.78
2023-04-19T14:14:21.522Z,4.32
2023-04-19T14:16:49.370Z,4.60
2023-04-19T14:19:17.203Z,5.35
2023-04-19T14:21:44.866Z,3.97
2023-04-19T14:24:12.671Z,3.97
2023-04-19T14:26:45.381Z,4.18
2023-04-19T14:29:14.537Z,4.10
2023-04-19T14:31:42.450Z,4.18
2023-04-19T14:34:30.975Z,5.40
2023-04-19T14:36:58.651Z,3.47
2023-04-19T14:39:34.343Z,3.28
2023-04-19T14:42:02.161Z,3.45
2023-04-19T14:44:36.093Z,3.67
2023-04-19T14:47:04.459Z,3.42
2023-04-19T14:49:44.218Z,3.33
2023-04-19T14:52:12.074Z,3.50
2023-04-19T14:54:40.533Z,3.63
2023-04-19T14:57:08.202Z,3.20
2023-04-19T14:59:37.402Z,3.33
2023-04-19T15:02:05.649Z,2.97
2023-04-19T15:04:37.335Z,2.70
2023-04-19T15:07:11.541Z,2.73
2023-04-19T15:09:40.560Z,2.53
2023-04-19T15:12:08.245Z,2.90
2023-04-19T15:14:37.339Z,2.88
2023-04-19T15:17:05.204Z,3.20
2023-04-19T15:19:36.481Z,2.85
2023-04-19T15:22:04.977Z,3.78
2023-04-19T15:24:51.675Z,2.35
2023-04-19T15:27:19.540Z,2.28
2023-04-19T15:29:48.786Z,2.20
2023-04-19T15:32:16.352Z,2.40
2023-04-19T15:34:43.958Z,2.13
2023-04-19T15:37:11.916Z,2.25
2023-04-19T15:39:39.552Z,2.00
2023-04-19T15:42:07.324Z,1.90
2023-04-19T15:44:35.230Z,1.92
2023-04-19T15:47:04.276Z,2.58
2023-04-19T15:49:32.649Z,1.80
2023-04-19T15:52:00.398Z,2.33
2023-04-19T15:54:28.833Z,2.20
2023-04-19T15:56:57.497Z,2.33
2023-04-19T15:59:25.858Z,2.10
2023-04-19T16:01:53.596Z,2.55
2023-04-19T16:04:24.084Z,2.80
2023-04-19T16:06:52.304Z,2.50
2023-04-19T16:09:20.300Z,2.70
2023-04-19T16:11:48.097Z,2.20
2023-04-19T16:14:16.321Z,2.55
2023-04-19T16:16:44.193Z,2.42
2023-04-19T16:19:12.043Z,2.35
2023-04-19T16:21:41.353Z,2.20
2023-04-19T16:24:09.418Z,2.15
2023-04-19T16:26:37.234Z,2.10
2023-04-19T16:29:04.905Z,2.63
2023-04-19T16:31:33.359Z,2.40
2023-04-19T16:34:05.271Z,2.58
2023-04-19T16:36:36.825Z,1.98
2023-04-19T16:39:05.960Z,2.50
2023-04-19T16:41:33.620Z,2.20
2023-04-19T16:44:01.323Z,2.45
2023-04-19T16:46:29.266Z,2.47
2023-04-19T16:48:58.904Z,2.30
2023-04-19T16:51:27.019Z,1.92
2023-04-19T16:53:54.850Z,2.35
2023-04-19T16:56:24.252Z,2.47
2023-04-19T16:58:52.260Z,1.88
2023-04-19T17:01:19.893Z,2.25
2023-04-19T17:03:47.632Z,2.20
2023-04-19T17:06:15.781Z,2.65
2023-04-19T17:08:43.541Z,3.10
2023-04-19T17:11:11.224Z,2.38
2023-04-19T17:13:40.220Z,2.17
2023-04-19T17:16:11.634Z,2.63
2023-04-19T17:18:39.870Z,2.47
2023-04-19T17:21:07.654Z,1.92
2023-04-19T17:23:35.572Z,2.13
2023-04-19T17:26:03.444Z,1.98
2023-04-19T17:28:31.104Z,2.20
2023-04-19T17:31:00.273Z,2.33
2023-04-19T17:33:28.865Z,2.15
2023-04-19T17:35:56.568Z,2.78
2023-04-19T17:38:24.309Z,1.77
2023-04-19T17:40:52.790Z,2.35
2023-04-19T17:43:21.010Z,1.90
2023-04-19T17:45:48.784Z,2.42
2023-04-19T17:48:17.808Z,2.15
2023-04-19T17:50:48.163Z,2.78
2023-04-19T17:53:18.887Z,2.40
2023-04-19T17:55:46.923Z,2.55
2023-04-19T17:58:14.631Z,2.30
2023-04-19T18:00:42.467Z,2.47
2023-04-19T18:03:11.248Z,2.33
2023-04-19T18:05:40.800Z,2.90
2023-04-19T18:08:08.938Z,2.17
2023-04-19T18:10:45.707Z,3.13
2023-04-19T18:13:13.730Z,2.40
2023-04-19T18:15:41.716Z,2.53
2023-04-19T18:18:09.612Z,2.60
2023-04-19T18:20:37.262Z,3.03
2023-04-19T18:23:06.926Z,2.58
2023-04-19T18:25:37.085Z,3.03
2023-04-19T18:28:05.628Z,2.35
2023-04-19T18:30:33.888Z,2.55
2023-04-19T18:33:01.602Z,3.33
2023-04-19T18:35:29.406Z,2.50
2023-04-19T18:37:57.804Z,3.05
2023-04-19T18:40:26.867Z,3.20
2023-04-19T18:42:55.228Z,2.88
2023-04-19T18:45:23.412Z,2.97
2023-04-19T18:47:51.213Z,3.13
2023-04-19T18:50:19.385Z,3.53
2023-04-19T18:52:47.218Z,2.88
2023-04-19T18:55:17.344Z,3.15
2023-04-19T18:57:46.362Z,2.53
2023-04-19T19:00:14.623Z,3.38
2023-04-19T19:02:44.037Z,3.83
2023-04-19T19:05:14.000Z,3.20
2023-04-19T19:07:42.264Z,3.17
2023-04-19T19:10:19.417Z,2.55
2023-04-19T19:12:51.114Z,3.17
2023-04-19T19:15:19.228Z,2.92
2023-04-19T19:17:50.378Z,2.60
2023-04-19T19:20:24.257Z,3.35
2023-04-19T19:22:51.922Z,3.83
2023-04-19T19:25:22.725Z,4.35
2023-04-19T19:30:25.670Z,3.22
2023-04-19T19:32:53.359Z,2.67
2023-04-19T19:35:21.611Z,3.65
2023-04-19T19:37:49.598Z,3.55
2023-04-19T19:40:17.413Z,3.13
2023-04-19T19:42:48.450Z,3.15
2023-04-19T19:45:19.381Z,2.75
2023-04-19T19:47:49.530Z,3.83
2023-04-19T19:52:48.706Z,2.80
2023-04-19T19:55:16.411Z,3.72
2023-04-19T20:00:31.815Z,3.45
2023-04-19T20:03:06.620Z,3.95
2023-04-19T20:05:35.186Z,3.50
2023-04-19T20:08:08.127Z,2.70
2023-04-19T20:10:36.902Z,2.88
2023-04-19T20:13:06.575Z,3.10
2023-04-19T20:15:34.639Z,3.15
2023-04-19T20:18:02.414Z,3.50
2023-04-19T20:20:31.615Z,3.15
2023-04-19T20:22:59.338Z,3.50
2023-04-19T20:25:28.247Z,3.58
2023-04-19T20:27:56.437Z,2.90
2023-04-19T20:30:24.359Z,3.08
2023-04-19T20:32:52.033Z,3.35
2023-04-19T20:35:19.735Z,3.13
2023-04-19T20:37:48.867Z,2.97
2023-04-19T20:40:16.615Z,3.03
2023-04-19T20:42:45.107Z,2.95
2023-04-19T20:45:14.342Z,3.33
2023-04-19T20:47:42.876Z,3.25
2023-04-19T20:50:11.275Z,2.47
2023-04-19T20:52:39.002Z,2.85
2023-04-19T20:55:08.712Z,2.70
2023-04-19T20:57:36.493Z,2.85
2023-04-19T21:00:05.677Z,2.45
2023-04-19T21:02:33.485Z,2.92
2023-04-19T21:05:01.449Z,2.95
2023-04-19T21:07:30.107Z,2.60
2023-04-19T21:09:59.935Z,2.53
2023-04-19T21:12:30.750Z,2.13
2023-04-19T21:14:58.389Z,2.63
2023-04-19T21:17:26.248Z,2.55
2023-04-19T21:19:54.341Z,2.42
2023-04-19T21:22:22.293Z,1.92
2023-04-19T21:24:49.984Z,1.95
2023-04-19T21:27:17.605Z,2.30
2023-04-19T21:29:48.013Z,1.92
2023-04-19T21:32:15.647Z,2.42
2023-04-19T21:34:44.614Z,2.95
2023-04-19T21:37:13.081Z,2.75
2023-04-19T21:39:40.779Z,2.63
2023-04-19T21:42:08.414Z,2.13
2023-04-19T21:44:36.315Z,2.20
2023-04-19T21:47:05.786Z,2.47
2023-04-19T21:49:33.509Z,2.05
2023-04-19T21:52:01.291Z,2.92
2023-04-19T21:54:33.773Z,2.58
2023-04-19T21:57:02.145Z,2.25
2023-04-19T21:59:30.334Z,2.53
2023-04-19T22:01:58.228Z,2.03
2023-04-19T22:04:31.298Z,2.58
2023-04-19T22:07:02.198Z,1.80
2023-04-19T22:09:30.424Z,1.92
2023-04-19T22:11:58.115Z,2.70
2023-04-19T22:14:25.858Z,2.00
2023-04-19T22:16:54.279Z,2.58
2023-04-19T22:19:24.528Z,2.25
2023-04-19T22:21:55.109Z,1.70
2023-04-19T22:24:23.224Z,2.28
2023-04-19T22:26:53.067Z,2.97
2023-04-19T22:29:20.968Z,1.90
2023-04-19T22:31:48.648Z,2.25
2023-04-19T22:34:16.479Z,2.50
2023-04-19T22:36:44.122Z,2.47
2023-04-19T22:39:13.162Z,1.95
2023-04-19T22:41:40.805Z,2.63
2023-04-19T22:44:08.407Z,1.83
2023-04-19T22:46:37.215Z,2.05
2023-04-19T22:49:07.907Z,2.42
2023-04-19T22:51:36.732Z,1.55
2023-04-19T22:54:04.498Z,2.40
2023-04-19T22:56:33.701Z,2.35
2023-04-19T22:59:01.378Z,2.58
2023-04-19T23:01:29.072Z,2.58
2023-04-19T23:03:56.703Z,2.78
2023-04-19T23:06:24.750Z,2.75
2023-04-19T23:08:52.753Z,2.78
2023-04-19T23:11:25.185Z,2.10
2023-04-19T23:13:54.349Z,2.42
2023-04-19T23:16:24.706Z,2.90
2023-04-19T23:18:52.708Z,2.55
2023-04-19T23:21:20.678Z,2.50
2023-04-19T23:23:48.375Z,2.65
2023-04-19T23:26:16.002Z,2.55
2023-04-19T23:28:43.722Z,2.65
2023-04-19T23:31:12.798Z,2.33
2023-04-19T23:33:40.500Z,2.10
2023-04-19T23:36:08.483Z,2.42
2023-04-19T23:38:36.184Z,2.40
2023-04-19T23:41:03.968Z,2.67
2023-04-19T23:43:31.648Z,2.50
2023-04-19T23:45:59.354Z,2.47
2023-04-19T23:48:28.667Z,2.10
2023-04-19T23:50:56.328Z,2.33
2023-04-19T23:53:23.980Z,2.08
2023-04-19T23:55:51.689Z,2.22
2023-04-19T23:58:19.326Z,2.60
